createdAt,value
2018-11-05T00:01:19.090Z,100062.81
2018-11-05T00:03:47.080Z,100062.33
2018-11-05T00:06:15.036Z,100060.30
2018-11-05T00:08:43.037Z,100068.30
2018-11-05T00:11:12.765Z,100063.40
2018-11-05T00:13:40.782Z,100061.95
2018-11-05T00:16:09.312Z,100050.54
2018-11-05T00:18:37.306Z,100057.33
2018-11-05T00:21:05.268Z,100058.49
2018-11-05T00:23:33.287Z,100048.15
2018-11-05T00:26:02.232Z,100048.35
2018-11-05T00:28:30.411Z,100048.48
2018-11-05T00:30:58.375Z,100047.77
2018-11-05T00:33:26.351Z,100036.81
2018-11-05T00:35:54.289Z,100034.19
2018-11-05T00:38:22.372Z,100035.48
2018-11-05T00:40:50.330Z,100033.69
2018-11-05T00:43:18.296Z,100035.72
2018-11-05T00:45:46.260Z,100032.36
2018-11-05T00:48:14.344Z,100029.27
2018-11-05T00:50:42.335Z,100036.05
2018-11-05T00:53:10.350Z,100038.78
2018-11-05T00:55:38.676Z,100029.97
2018-11-05T00:58:06.685Z,100029.14
2018-11-05T01:00:34.637Z,100027.69
2018-11-05T01:03:02.648Z,100032.73
2018-11-05T01:05:30.644Z,100030.70
2018-11-05T01:07:58.754Z,100022.12
2018-11-05T01:10:26.794Z,100023.19
2018-11-05T01:12:55.022Z,100024.02
2018-11-05T01:15:23.061Z,100016.17
2018-11-05T01:17:51.081Z,100015.48
2018-11-05T01:20:19.055Z,100006.09
2018-11-05T01:22:46.992Z,100007.16
2018-11-05T01:25:15.019Z,100007.64
2018-11-05T01:27:42.975Z,100003.15
2018-11-05T01:30:12.648Z,99994.58
2018-11-05T01:32:40.889Z,100000.77
2018-11-05T01:35:10.535Z,100001.23
2018-11-05T01:37:38.680Z,100001.61
2018-11-05T01:40:08.798Z,99996.23
2018-11-05T01:42:37.089Z,99996.38
2018-11-05T01:45:06.176Z,99995.05
2018-11-05T01:47:34.180Z,99993.75
2018-11-05T01:50:02.372Z,99988.40
2018-11-05T01:52:30.308Z,99989.80
2018-11-05T01:54:58.348Z,99989.56
2018-11-05T01:57:26.336Z,99985.03
2018-11-05T01:59:54.328Z,99979.06
2018-11-05T02:02:22.308Z,99986.73
2018-11-05T02:04:50.314Z,99984.46
2018-11-05T02:07:18.298Z,99979.44
2018-11-05T02:09:46.277Z,99973.50
2018-11-05T02:12:14.248Z,99965.76
2018-11-05T02:14:42.273Z,99957.90
2018-11-05T02:17:10.246Z,99951.81
2018-11-05T02:19:38.400Z,99942.27
2018-11-05T02:22:06.432Z,99942.41
2018-11-05T02:24:34.438Z,99942.75
2018-11-05T02:27:02.461Z,99940.23
2018-11-05T02:29:30.556Z,99938.70
2018-11-05T02:31:58.593Z,99938.33
2018-11-05T02:34:26.631Z,99938.92
2018-11-05T02:36:54.631Z,99937.72
2018-11-05T02:39:22.754Z,99931.40
2018-11-05T02:41:50.715Z,99933.75
2018-11-05T02:44:18.747Z,99925.54
2018-11-05T02:46:46.825Z,99930.84
2018-11-05T02:49:14.900Z,99933.84
2018-11-05T02:51:42.925Z,99934.50
2018-11-05T02:54:10.957Z,99938.01
2018-11-05T02:56:39.004Z,99932.77
2018-11-05T02:59:07.169Z,99927.27
2018-11-05T03:01:35.184Z,99930.00
2018-11-05T03:04:03.224Z,99932.59
2018-11-05T03:06:31.361Z,99928.03
2018-11-05T03:08:59.274Z,99930.55
2018-11-05T03:11:27.404Z,99924.95
2018-11-05T03:13:55.376Z,99916.26
2018-11-05T03:16:23.346Z,99911.73
2018-11-05T03:18:51.330Z,99908.36
2018-11-05T03:21:19.316Z,99902.06
2018-11-05T03:23:47.321Z,99913.64
2018-11-05T03:26:15.371Z,99905.88
2018-11-05T03:28:43.354Z,99906.59
2018-11-05T03:31:11.322Z,99898.21
2018-11-05T03:33:39.284Z,99910.02
2018-11-05T03:36:07.405Z,99896.45
2018-11-05T03:38:35.389Z,99891.42
2018-11-05T03:41:03.414Z,99882.95
2018-11-05T03:43:31.570Z,99882.47
2018-11-05T03:45:59.606Z,99881.76
2018-11-05T03:48:27.505Z,99880.08
2018-11-05T03:50:55.515Z,99876.28
2018-11-05T03:53:23.435Z,99870.06
2018-11-05T03:55:51.544Z,99873.66
2018-11-05T03:58:19.524Z,99878.91
2018-11-05T04:00:47.637Z,99876.14
2018-11-05T04:03:15.604Z,99883.55
2018-11-05T04:05:43.974Z,99881.27
2018-11-05T04:08:11.930Z,99878.73
2018-11-05T04:10:39.947Z,99875.88
2018-11-05T04:13:07.896Z,99873.97
2018-11-05T04:15:36.123Z,99868.23
2018-11-05T04:18:04.015Z,99858.82
2018-11-05T04:20:32.055Z,99859.91
2018-11-05T04:23:00.075Z,99860.81
2018-11-05T04:25:28.079Z,99860.22
2018-11-05T04:27:56.131Z,99865.23
2018-11-05T04:30:24.119Z,99862.35
2018-11-05T04:32:52.139Z,99869.99
2018-11-05T04:35:20.164Z,99871.31
2018-11-05T04:37:48.564Z,99876.78
2018-11-05T04:40:16.574Z,99876.52
2018-11-05T04:42:44.667Z,99871.05
2018-11-05T04:45:13.329Z,99869.51
2018-11-05T04:47:41.988Z,99869.05
2018-11-05T04:50:11.144Z,99870.37
2018-11-05T04:52:40.035Z,99884.50
2018-11-05T04:55:08.050Z,99872.20
2018-11-05T04:57:36.129Z,99870.41
2018-11-05T05:00:10.056Z,99864.94
2018-11-05T05:02:39.110Z,99856.23
2018-11-05T05:05:07.513Z,99856.84
2018-11-05T05:07:35.597Z,99853.61
2018-11-05T05:10:03.837Z,99852.78
2018-11-05T05:12:31.840Z,99858.11
2018-11-05T05:14:59.916Z,99859.69
2018-11-05T05:17:27.998Z,99854.81
2018-11-05T05:19:55.997Z,99858.97
2018-11-05T05:22:24.058Z,99861.44
2018-11-05T05:24:52.096Z,99859.42
2018-11-05T05:27:20.137Z,99850.23
2018-11-05T05:29:48.390Z,99846.79
2018-11-05T05:32:16.403Z,99842.63
2018-11-05T05:34:44.396Z,99834.16
2018-11-05T05:37:12.860Z,99850.16
2018-11-05T05:39:41.012Z,99856.46
2018-11-05T05:42:09.552Z,99864.94
2018-11-05T05:44:37.652Z,99862.75
2018-11-05T05:47:06.005Z,99862.91
2018-11-05T05:49:34.477Z,99859.42
2018-11-05T05:52:02.732Z,99860.73
2018-11-05T05:54:31.005Z,99861.00
2018-11-05T05:56:59.272Z,99861.97
2018-11-05T05:59:27.452Z,99876.02
2018-11-05T06:01:55.744Z,99861.81
2018-11-05T06:04:23.924Z,99865.12
2018-11-05T06:06:52.114Z,99868.48
2018-11-05T06:09:20.414Z,99860.73
2018-11-05T06:11:48.614Z,99864.63
2018-11-05T06:14:16.927Z,99868.56
2018-11-05T06:16:45.126Z,99864.62
2018-11-05T06:19:13.485Z,99863.64
2018-11-05T06:21:41.829Z,99855.89
2018-11-05T06:24:10.146Z,99850.19
2018-11-05T06:26:38.326Z,99839.46
2018-11-05T06:29:06.781Z,99839.70
2018-11-05T06:31:35.086Z,99840.19
2018-11-05T06:34:03.545Z,99840.94
2018-11-05T06:36:31.879Z,99834.45
2018-11-05T06:39:00.216Z,99831.59
2018-11-05T06:41:28.533Z,99830.95
2018-11-05T06:43:56.795Z,99821.16
2018-11-05T06:46:25.061Z,99825.25
2018-11-05T06:48:53.405Z,99826.30
2018-11-05T06:51:21.761Z,99827.19
2018-11-05T06:53:50.122Z,99829.48
2018-11-05T06:56:18.280Z,99833.63
2018-11-05T06:58:46.521Z,99833.25
2018-11-05T07:01:14.711Z,99842.39
2018-11-05T07:03:42.972Z,99834.73
2018-11-05T07:06:11.111Z,99831.34
2018-11-05T07:08:39.459Z,99850.77
2018-11-05T07:11:07.658Z,99877.73
2018-11-05T07:13:35.860Z,99877.24
2018-11-05T07:16:04.119Z,99874.84
2018-11-05T07:18:32.546Z,99889.72
2018-11-05T07:21:00.693Z,99891.03
2018-11-05T07:23:28.953Z,99878.84
2018-11-05T07:25:57.175Z,99877.63
2018-11-05T07:28:25.546Z,99879.28
2018-11-05T07:30:53.794Z,99883.92
2018-11-05T07:33:22.204Z,99882.83
2018-11-05T07:35:50.354Z,99877.70
2018-11-05T07:38:18.650Z,99875.08
2018-11-05T07:40:46.770Z,99871.84
2018-11-05T07:43:14.998Z,99873.86
2018-11-05T07:45:43.258Z,99872.88
2018-11-05T07:48:11.490Z,99879.05
2018-11-05T07:50:39.688Z,99861.22
2018-11-05T07:53:07.870Z,99874.36
2018-11-05T07:55:36.058Z,99868.00
2018-11-05T07:58:04.258Z,99859.79
2018-11-05T08:00:37.940Z,99861.59
2018-11-05T08:03:06.412Z,99867.34
2018-11-05T08:05:34.653Z,99878.83
2018-11-05T08:08:02.913Z,99878.19
2018-11-05T08:10:31.196Z,99871.28
2018-11-05T08:12:59.493Z,99864.80
2018-11-05T08:15:27.913Z,99861.75
2018-11-05T08:17:56.041Z,99859.48
2018-11-05T08:20:24.315Z,99854.92
2018-11-05T08:22:52.457Z,99861.25
2018-11-05T08:25:20.693Z,99857.55
2018-11-05T08:27:48.933Z,99861.05
2018-11-05T08:30:22.914Z,99864.51
2018-11-05T08:32:51.141Z,99857.81
2018-11-05T08:35:19.361Z,99850.39
2018-11-05T08:37:47.963Z,99856.98
2018-11-05T08:40:19.168Z,99855.09
2018-11-05T08:42:48.324Z,99850.05
2018-11-05T08:45:17.758Z,99849.71
2018-11-05T08:47:46.178Z,99849.01
2018-11-05T08:50:15.568Z,99838.86
2018-11-05T08:52:43.839Z,99833.23
2018-11-05T08:55:14.410Z,99832.50
2018-11-05T08:57:42.982Z,99837.75
2018-11-05T09:00:20.458Z,99835.67
2018-11-05T09:02:48.900Z,99829.59
2018-11-05T09:05:17.200Z,99826.06
2018-11-05T09:07:46.122Z,99830.55
2018-11-05T09:10:14.649Z,99824.88
2018-11-05T09:12:43.119Z,99830.96
2018-11-05T09:15:13.800Z,99826.03
2018-11-05T09:17:42.939Z,99826.73
2018-11-05T09:20:12.382Z,99829.48
2018-11-05T09:22:40.639Z,99832.17
2018-11-05T09:25:10.379Z,99832.82
2018-11-05T09:27:38.596Z,99819.88
2018-11-05T09:30:10.199Z,99819.02
2018-11-05T09:32:38.319Z,99810.22
2018-11-05T09:35:06.780Z,99809.93
2018-11-05T09:37:35.080Z,99817.70
2018-11-05T09:40:03.339Z,99818.11
2018-11-05T09:42:31.583Z,99817.52
2018-11-05T09:44:59.899Z,99803.58
2018-11-05T09:47:34.820Z,99795.05
2018-11-05T09:50:03.119Z,99808.39
2018-11-05T09:52:31.479Z,99816.53
2018-11-05T09:54:59.658Z,99804.06
2018-11-05T09:57:28.031Z,99802.19
2018-11-05T09:59:56.191Z,99802.17
2018-11-05T10:02:27.239Z,99804.58
2018-11-05T10:04:55.679Z,99800.83
2018-11-05T10:07:23.619Z,99800.14
2018-11-05T10:09:51.871Z,99790.43
2018-11-05T10:12:20.239Z,99786.05
2018-11-05T10:14:48.380Z,99783.52
2018-11-05T10:17:16.707Z,99781.51
2018-11-05T10:19:44.859Z,99779.31
2018-11-05T10:22:13.059Z,99784.34
2018-11-05T10:24:41.280Z,99787.17
2018-11-05T10:27:09.530Z,99791.36
2018-11-05T10:29:37.819Z,99789.55
2018-11-05T10:32:06.088Z,99792.67
2018-11-05T10:34:34.283Z,99792.38
2018-11-05T10:37:02.480Z,99784.94
2018-11-05T10:39:30.679Z,99782.50
2018-11-05T10:41:58.818Z,99790.41
2018-11-05T10:44:27.019Z,99782.44
2018-11-05T10:46:55.159Z,99775.52
2018-11-05T10:49:23.387Z,99771.17
2018-11-05T10:51:51.832Z,99768.95
2018-11-05T10:54:19.959Z,99758.80
2018-11-05T10:56:48.216Z,99754.66
2018-11-05T10:59:16.458Z,99743.28
2018-11-05T11:01:50.202Z,99739.72
2018-11-05T11:04:23.765Z,99742.60
2018-11-05T11:06:51.999Z,99746.44
2018-11-05T11:09:20.139Z,99737.69
2018-11-05T11:11:48.439Z,99732.91
2018-11-05T11:14:16.638Z,99729.61
2018-11-05T11:16:44.960Z,99731.69
2018-11-05T11:19:13.050Z,99735.20
2018-11-05T11:21:41.279Z,99725.03
2018-11-05T11:24:09.606Z,99723.69
2018-11-05T11:26:38.230Z,99713.17
2018-11-05T11:29:06.555Z,99718.09
2018-11-05T11:31:34.859Z,99709.78
2018-11-05T11:34:03.138Z,99705.16
2018-11-05T11:36:31.396Z,99708.86
2018-11-05T11:38:59.718Z,99710.67
2018-11-05T11:41:27.870Z,99706.96
2018-11-05T11:43:56.132Z,99708.28
2018-11-05T11:46:24.367Z,99713.92
2018-11-05T11:48:52.598Z,99707.01
2018-11-05T11:51:20.819Z,99705.27
2018-11-05T11:53:49.046Z,99698.55
2018-11-05T11:56:17.338Z,99696.86
2018-11-05T11:58:45.416Z,99706.27
2018-11-05T12:01:13.682Z,99690.77
2018-11-05T12:03:41.731Z,99688.52
2018-11-05T12:06:09.957Z,99693.29
2018-11-05T12:08:38.267Z,99684.93
2018-11-05T12:11:06.501Z,99683.06
2018-11-05T12:13:34.675Z,99677.84
2018-11-05T12:16:02.950Z,99685.61
2018-11-05T12:18:31.250Z,99687.38
2018-11-05T12:20:59.506Z,99683.29
2018-11-05T12:23:27.758Z,99675.84
2018-11-05T12:25:56.078Z,99675.56
2018-11-05T12:28:24.358Z,99679.67
2018-11-05T12:30:52.663Z,99679.39
2018-11-05T12:33:20.838Z,99682.48
2018-11-05T12:35:49.167Z,99681.53
2018-11-05T12:38:17.438Z,99679.72
2018-11-05T12:40:45.738Z,99684.72
2018-11-05T12:43:13.927Z,99683.78
2018-11-05T12:45:42.178Z,99672.81
2018-11-05T12:48:10.359Z,99669.50
2018-11-05T12:50:38.671Z,99660.91
2018-11-05T12:53:06.878Z,99661.12
2018-11-05T12:55:35.093Z,99671.58
2018-11-05T12:58:03.338Z,99660.73
2018-11-05T13:00:31.819Z,99666.98
2018-11-05T13:03:01.001Z,99669.41
2018-11-05T13:05:30.758Z,99673.58
2018-11-05T13:07:59.038Z,99654.10
2018-11-05T13:10:27.246Z,99644.72
2018-11-05T13:12:55.587Z,99636.86
2018-11-05T13:15:23.852Z,99639.27
2018-11-05T13:17:52.167Z,99637.91
2018-11-05T13:20:21.450Z,99640.55
2018-11-05T13:22:49.738Z,99629.81
2018-11-05T13:25:17.871Z,99635.56
2018-11-05T13:27:47.358Z,99630.95
2018-11-05T13:30:15.910Z,99627.00
2018-11-05T13:32:44.543Z,99625.00
2018-11-05T13:35:14.058Z,99620.55
2018-11-05T13:37:42.935Z,99622.86
2018-11-05T13:40:13.178Z,99619.91
2018-11-05T13:42:41.438Z,99612.63
2018-11-05T13:45:11.035Z,99605.21
2018-11-05T13:47:40.092Z,99606.39
2018-11-05T13:50:08.348Z,99600.76
2018-11-05T13:52:36.854Z,99594.02
2018-11-05T13:55:05.413Z,99590.05
2018-11-05T13:57:33.739Z,99587.59
2018-11-05T14:00:02.150Z,99593.20
2018-11-05T14:02:30.583Z,99600.78
2018-11-05T14:04:58.858Z,99592.05
2018-11-05T14:07:28.047Z,99585.80
2018-11-05T14:09:56.265Z,99587.77
2018-11-05T14:12:24.619Z,99590.23
2018-11-05T14:14:52.929Z,99586.95
2018-11-05T14:17:21.198Z,99589.11
2018-11-05T14:19:49.578Z,99584.16
2018-11-05T14:22:17.826Z,99575.89
2018-11-05T14:24:46.058Z,99570.62
2018-11-05T14:27:14.454Z,99567.66
2018-11-05T14:29:43.080Z,99570.30
2018-11-05T14:32:10.858Z,99565.66
2018-11-05T14:34:38.979Z,99570.59
2018-11-05T14:37:07.480Z,99558.39
2018-11-05T14:39:35.718Z,99548.98
2018-11-05T14:42:03.926Z,99553.27
2018-11-05T14:44:32.087Z,99556.72
2018-11-05T14:47:00.269Z,99554.58
2018-11-05T14:49:28.458Z,99557.69
2018-11-05T14:51:56.619Z,99556.84
2018-11-05T14:54:27.159Z,99562.44
2018-11-05T14:56:56.475Z,99571.67
2018-11-05T14:59:24.810Z,99575.95
2018-11-05T15:02:56.907Z,99569.31
2018-11-05T15:05:25.071Z,99558.77
2018-11-05T15:07:53.360Z,99562.26
2018-11-05T15:10:22.883Z,99551.85
2018-11-05T15:12:51.318Z,99546.39
2018-11-05T15:15:19.987Z,99549.03
2018-11-05T15:17:48.559Z,99555.45
2018-11-05T15:20:18.878Z,99552.59
2018-11-05T15:22:47.261Z,99550.09
2018-11-05T15:25:15.918Z,99552.91
2018-11-05T15:27:44.158Z,99560.59
2018-11-05T15:30:16.088Z,99559.27
2018-11-05T15:32:44.523Z,99552.81
2018-11-05T15:35:12.819Z,99549.14
2018-11-05T15:37:41.771Z,99545.33
2018-11-05T15:40:11.759Z,99541.87
2018-11-05T15:42:40.119Z,99542.92
2018-11-05T15:45:10.319Z,99549.39
2018-11-05T15:47:39.083Z,99562.36
2018-11-05T15:50:09.318Z,99561.93
2018-11-05T15:52:37.721Z,99550.71
2018-11-05T15:55:06.039Z,99557.93
2018-11-05T15:57:34.818Z,99554.64
2018-11-05T16:00:03.219Z,99548.82
2018-11-05T16:02:31.411Z,99557.59
2018-11-05T16:04:59.693Z,99550.13
2018-11-05T16:07:27.999Z,99552.16
2018-11-05T16:09:56.371Z,99551.90
2018-11-05T16:12:24.451Z,99557.22
2018-11-05T16:14:52.744Z,99551.89
2018-11-05T16:17:21.039Z,99542.79
2018-11-05T16:19:49.441Z,99548.78
2018-11-05T16:22:17.619Z,99549.38
2018-11-05T16:24:45.927Z,99548.48
2018-11-05T16:27:14.128Z,99552.53
2018-11-05T16:29:42.667Z,99555.45
2018-11-05T16:32:13.529Z,99552.77
2018-11-05T16:34:42.057Z,99560.13
2018-11-05T16:37:10.431Z,99563.95
2018-11-05T16:39:40.064Z,99562.55
2018-11-05T16:42:08.448Z,99565.89
2018-11-05T16:44:38.611Z,99568.25
2018-11-05T16:47:07.051Z,99569.70
2018-11-05T16:49:35.438Z,99576.95
2018-11-05T16:52:03.830Z,99571.88
2018-11-05T16:54:37.870Z,99571.56
2018-11-05T16:57:13.602Z,99575.59
2018-11-05T16:59:43.127Z,99575.38
2018-11-05T17:02:13.508Z,99569.23
2018-11-05T17:04:43.210Z,99573.17
2018-11-05T17:07:12.316Z,99572.84
2018-11-05T17:09:40.870Z,99580.02
2018-11-05T17:12:09.317Z,99577.68
2018-11-05T17:14:37.990Z,99580.27
2018-11-05T17:17:06.492Z,99569.47
2018-11-05T17:19:34.871Z,99580.05
2018-11-05T17:22:03.450Z,99576.06
2018-11-05T17:24:32.498Z,99573.09
2018-11-05T17:27:00.854Z,99578.81
2018-11-05T17:29:29.263Z,99576.47
2018-11-05T17:31:57.965Z,99573.42
2018-11-05T17:34:26.486Z,99570.47
2018-11-05T17:36:54.597Z,99578.80
2018-11-05T17:39:22.639Z,99578.59
2018-11-05T17:41:50.739Z,99577.00
2018-11-05T17:44:18.835Z,99564.44
2018-11-05T17:46:46.962Z,99564.78
2018-11-05T17:49:14.972Z,99568.77
2018-11-05T17:51:43.053Z,99560.14
2018-11-05T17:54:11.067Z,99567.03
2018-11-05T17:56:39.240Z,99567.91
2018-11-05T17:59:07.255Z,99556.84
2018-11-05T18:01:35.316Z,99556.29
2018-11-05T18:04:03.459Z,99560.61
2018-11-05T18:06:31.972Z,99555.42
2018-11-05T18:09:00.257Z,99559.78
2018-11-05T18:11:28.248Z,99551.70
2018-11-05T18:13:56.339Z,99545.22
2018-11-05T18:16:24.375Z,99549.48
2018-11-05T18:18:52.457Z,99549.75
2018-11-05T18:21:20.486Z,99554.62
2018-11-05T18:23:48.539Z,99555.38
2018-11-05T18:26:16.495Z,99554.34
2018-11-05T18:28:44.660Z,99546.38
2018-11-05T18:31:12.840Z,99543.52
2018-11-05T18:33:40.848Z,99543.97
2018-11-05T18:36:08.920Z,99539.64
2018-11-05T18:38:37.044Z,99542.33
2018-11-05T18:41:05.506Z,99537.62
2018-11-05T18:43:33.665Z,99530.10
2018-11-05T18:46:01.695Z,99536.30
2018-11-05T18:48:30.109Z,99538.07
2018-11-05T18:50:58.186Z,99541.55
2018-11-05T18:53:26.413Z,99539.23
2018-11-05T18:55:54.477Z,99539.86
2018-11-05T18:58:22.565Z,99542.86
2018-11-05T19:00:50.665Z,99540.05
2018-11-05T19:03:18.869Z,99547.08
2018-11-05T19:05:47.233Z,99551.64
2018-11-05T19:08:15.461Z,99545.73
2018-11-05T19:10:43.700Z,99550.14
2018-11-05T19:13:12.010Z,99554.82
2018-11-05T19:15:41.003Z,99550.30
2018-11-05T19:18:12.571Z,99552.80
2018-11-05T19:20:43.439Z,99546.63
2018-11-05T19:25:52.109Z,99548.72
2018-11-05T19:28:23.047Z,99543.30
2018-11-05T19:30:56.949Z,99541.28
2018-11-05T19:33:29.731Z,99534.86
2018-11-05T19:36:08.990Z,99533.42
2018-11-05T19:38:44.227Z,99525.19
2018-11-05T19:41:21.075Z,99513.64
2018-11-05T19:43:59.062Z,99519.61
2018-11-05T19:46:30.404Z,99520.63
2018-11-05T19:48:59.273Z,99520.83
2018-11-05T19:51:30.850Z,99528.11
2018-11-05T19:57:32.264Z,99531.67
2018-11-05T20:00:14.220Z,99529.39
2018-11-05T20:02:44.841Z,99536.42
2018-11-05T20:05:17.170Z,99529.84
2018-11-05T20:07:50.146Z,99538.44
2018-11-05T20:10:22.493Z,99539.11
2018-11-05T20:12:57.145Z,99541.95
2018-11-05T20:15:30.606Z,99547.56
2018-11-05T20:18:06.820Z,99545.36
2018-11-05T20:20:45.455Z,99541.46
2018-11-05T20:23:18.178Z,99538.39
2018-11-05T20:25:59.710Z,99543.97
2018-11-05T20:28:32.382Z,99544.28
2018-11-05T20:31:04.972Z,99541.59
2018-11-05T20:33:39.036Z,99540.42
2018-11-05T20:36:12.013Z,99533.55
2018-11-05T20:38:49.528Z,99528.09
2018-11-05T20:41:23.188Z,99526.41
2018-11-05T20:43:56.435Z,99533.17
2018-11-05T20:46:27.370Z,99543.15
2018-11-05T20:49:00.359Z,99542.20
2018-11-05T20:51:33.445Z,99542.23
2018-11-05T20:54:07.387Z,99546.39
2018-11-05T20:56:37.887Z,99543.58
2018-11-05T20:59:06.017Z,99544.80
2018-11-05T21:01:35.225Z,99540.05
2018-11-05T21:04:03.685Z,99542.13
2018-11-05T21:06:31.734Z,99545.51
2018-11-05T21:08:59.741Z,99544.55
2018-11-05T21:11:28.135Z,99542.44
2018-11-05T21:13:56.105Z,99550.66
2018-11-05T21:16:24.230Z,99547.39
2018-11-05T21:18:53.243Z,99544.80
2018-11-05T21:21:21.378Z,99545.56
2018-11-05T21:23:50.670Z,99553.45
2018-11-05T21:26:19.053Z,99553.28
2018-11-05T21:28:47.072Z,99549.45
2018-11-05T21:31:15.160Z,99559.87
2018-11-05T21:33:43.805Z,99558.33
2018-11-05T21:36:11.845Z,99552.72
2018-11-05T21:38:39.872Z,99543.10
2018-11-05T21:41:07.983Z,99545.14
2018-11-05T21:43:35.985Z,99542.69
2018-11-05T21:46:04.157Z,99543.31
2018-11-05T21:48:32.273Z,99541.94
2018-11-05T21:51:00.611Z,99543.16
2018-11-05T21:53:28.747Z,99543.37
2018-11-05T21:55:57.034Z,99541.10
2018-11-05T21:58:25.029Z,99533.17
2018-11-05T22:00:53.113Z,99536.05
2018-11-05T22:03:21.134Z,99529.77
2018-11-05T22:05:49.170Z,99533.20
2018-11-05T22:08:17.108Z,99521.31
2018-11-05T22:10:45.198Z,99518.83
2018-11-05T22:13:13.409Z,99521.23
2018-11-05T22:15:45.725Z,99513.59
2018-11-05T22:18:14.636Z,99512.11
2018-11-05T22:20:42.726Z,99506.05
2018-11-05T22:23:10.762Z,99510.83
2018-11-05T22:25:38.796Z,99517.28
2018-11-05T22:28:07.050Z,99525.80
2018-11-05T22:30:35.189Z,99530.10
2018-11-05T22:33:03.409Z,99523.33
2018-11-05T22:35:31.625Z,99527.00
2018-11-05T22:37:59.813Z,99527.69
2018-11-05T22:40:27.852Z,99528.22
2018-11-05T22:42:55.861Z,99535.74
2018-11-05T22:45:23.901Z,99531.31
2018-11-05T22:47:51.950Z,99528.82
2018-11-05T22:50:20.041Z,99528.87
2018-11-05T22:52:48.141Z,99535.67
2018-11-05T22:55:16.140Z,99528.30
2018-11-05T22:57:44.132Z,99536.72
2018-11-05T23:00:20.883Z,99544.77
2018-11-05T23:02:54.393Z,99531.69
2018-11-05T23:05:22.719Z,99534.05
2018-11-05T23:07:51.704Z,99531.89
2018-11-05T23:10:19.680Z,99533.45
2018-11-05T23:12:47.742Z,99538.05
2018-11-05T23:15:15.939Z,99533.77
2018-11-05T23:17:44.066Z,99528.91
2018-11-05T23:20:12.007Z,99540.03
2018-11-05T23:22:40.720Z,99539.58
2018-11-05T23:25:08.730Z,99534.51
2018-11-05T23:27:36.843Z,99533.94
2018-11-05T23:30:06.677Z,99541.10
2018-11-05T23:32:34.678Z,99543.61
2018-11-05T23:35:02.662Z,99539.88
2018-11-05T23:37:30.882Z,99546.02
2018-11-05T23:39:58.840Z,99537.49
2018-11-05T23:42:26.880Z,99541.64
2018-11-05T23:44:54.900Z,99538.45
2018-11-05T23:47:27.060Z,99541.39
2018-11-05T23:49:55.119Z,99526.27
2018-11-05T23:52:23.525Z,99526.28
2018-11-05T23:54:51.631Z,99538.97
2018-11-05T23:57:19.636Z,99543.86
2018-11-05T23:59:47.796Z,99537.98
